KGPT

Gulfport-Biloxi International Airport

Gulfport, Mississippi, USA
METAR KGPT 231953Z 08006KT 4SM RA BR SCT033 BKN110 20/18 A3009 RMK AO2 RAB23 SLP190 P0004 T02000183
Observed Flight Rules
Oct-23 @ 19:53 UTC (39 minutes ago) Marginal Visual Flight Rules
Wind Visibility Clouds Conditions
80° at 6 knots 4 miles
  • Scattered at 3,300' AGL
  • Broken at 11,000' AGL
  • Rain
  • Mist
Temperatures Readings Precipitation
Current 20°C / 68°F
Dewpoint 18°C / 64°F
Humidity 88%
Altimeter 30.09" Hg
Pressure 1019 hPa
Elevation 14
Current Rain 0.04
METAR KGPT 231953Z 08006KT 4SM RA BR SCT033 BKN110 20/18 A3009 RMK AO2 RAB23 SLP190 P0004 T02000183
Observed Flight Rules
Oct-23 @ 19:53 UTC
(39 minutes ago)
MVFR
Wind Visibility
80° at 6 knots 4 miles
Clouds
  • Scattered at 3,300' AGL
  • Broken at 11,000' AGL
Conditions
  • Rain
  • Mist
Temperature Dewpoint
20°C / 68°F 18°C / 64°F
Humidity Altimeter Pressure
88% 30.09" Hg 1019 hPa
Current Rain
0.04